Time;durP1;ratioP1;P1;durP2;ratioP2;P2;SDS_P1;SDS_P2;PMS_P1;PMS_P2;Temp;Humidity;BMP_temperature;BMP_pressure;BME280_temperature;BME280_humidity;BME280_pressure;Samples;Min_cycle;Max_cycle;Signal;HPM_P1;HPM_P2
2022/12/07 00:01:40;;;;;;;6.90;5.95;;;6.30;99.90;;;;;;5033464;28;20193;-66
2022/12/07 00:04:09;;;;;;;7.65;6.68;;;6.20;99.90;;;;;;5028781;28;20279;-66
2022/12/07 00:06:49;;;;;;;7.97;6.63;;;6.10;99.90;;;;;;5033987;28;20276;-66
2022/12/07 00:09:17;;;;;;;7.45;6.40;;;5.90;99.90;;;;;;5049463;28;20230;-64
2022/12/07 00:11:44;;;;;;;6.18;5.57;;;6.20;99.90;;;;;;5048889;28;20261;-64
2022/12/07 00:14:12;;;;;;;6.85;6.15;;;5.90;99.90;;;;;;5035193;28;20251;-67
2022/12/07 00:16:38;;;;;;;7.50;6.13;;;5.90;99.90;;;;;;5032525;28;20556;-64
2022/12/07 00:19:04;;;;;;;7.90;6.97;;;6.20;99.90;;;;;;5035269;28;20182;-64
2022/12/07 00:21:32;;;;;;;7.40;6.65;;;6.20;99.90;;;;;;5034034;28;20440;-64
2022/12/07 00:23:59;;;;;;;7.07;6.38;;;6.10;99.90;;;;;;5035513;28;20271;-65
2022/12/07 00:26:36;;;;;;;7.35;6.65;;;6.20;99.90;;;;;;5028525;28;20189;-65
2022/12/07 00:29:05;;;;;;;8.20;6.55;;;6.10;99.90;;;;;;5035513;28;20185;-64
2022/12/07 00:31:34;;;;;;;8.02;6.60;;;6.00;99.90;;;;;;5043511;28;20618;-66
2022/12/07 00:34:01;;;;;;;7.35;6.65;;;6.10;99.90;;;;;;5026335;28;20205;-66
2022/12/07 00:36:27;;;;;;;8.18;6.97;;;6.20;99.90;;;;;;5033179;28;20178;-68
2022/12/07 00:38:53;;;;;;;7.33;6.23;;;6.10;99.90;;;;;;5026084;28;20190;-68
2022/12/07 00:41:22;;;;;;;8.40;6.68;;;6.30;99.90;;;;;;5034998;28;20436;-68
2022/12/07 00:43:49;;;;;;;7.47;6.68;;;6.10;99.90;;;;;;5037158;28;20269;-65
2022/12/07 00:46:16;;;;;;;9.00;7.30;;;6.00;99.90;;;;;;5036023;28;20178;-65
2022/12/07 00:48:42;;;;;;;9.88;8.43;;;6.00;99.90;;;;;;5042115;28;20210;-67
2022/12/07 00:51:09;;;;;;;10.35;7.65;;;6.10;99.90;;;;;;5042887;28;20236;-66
2022/12/07 00:53:35;;;;;;;8.98;7.63;;;6.20;99.90;;;;;;5035102;28;20612;-64
2022/12/07 00:56:28;;;;;;;8.10;7.20;;;6.00;99.90;;;;;;5032850;28;20209;-63
2022/12/07 00:58:56;;;;;;;8.63;7.20;;;6.00;99.90;;;;;;5041521;28;20440;-64
2022/12/07 01:01:22;;;;;;;7.70;6.90;;;6.00;99.90;;;;;;5034366;28;20184;-66
2022/12/07 01:03:48;;;;;;;9.35;7.63;;;6.10;99.90;;;;;;5036182;28;20711;-66
2022/12/07 01:06:18;;;;;;;10.60;8.07;;;6.00;99.90;;;;;;5038901;28;20192;-66
2022/12/07 01:08:44;;;;;;;8.50;7.60;;;6.10;99.90;;;;;;5039390;28;20186;-66
2022/12/07 01:11:15;;;;;;;8.53;7.33;;;5.90;99.90;;;;;;5019863;28;20210;-66
2022/12/07 01:13:42;;;;;;;10.77;8.40;;;6.30;99.90;;;;;;5038623;28;20444;-66
2022/12/07 01:16:09;;;;;;;10.02;7.07;;;6.40;99.90;;;;;;5040704;28;20553;-66
2022/12/07 01:18:36;;;;;;;9.43;7.88;;;6.00;99.90;;;;;;5032196;28;20189;-65
2022/12/07 01:21:02;;;;;;;7.93;7.13;;;5.80;99.90;;;;;;5026873;28;20209;-66
2022/12/07 01:23:28;;;;;;;10.80;8.25;;;5.90;99.90;;;;;;5036792;28;21610;-65
2022/12/07 01:25:56;;;;;;;9.25;8.18;;;6.10;99.90;;;;;;5031000;28;20206;-65
2022/12/07 01:28:22;;;;;;;10.20;8.10;;;6.00;99.90;;;;;;5031350;28;20192;-66
2022/12/07 01:31:05;;;;;;;9.80;7.90;;;5.90;99.90;;;;;;5034060;28;20267;-65
2022/12/07 01:33:34;;;;;;;10.35;8.48;;;5.90;99.90;;;;;;5028343;28;20265;-64
2022/12/07 01:36:23;;;;;;;8.90;8.00;;;6.00;99.90;;;;;;5031611;28;20567;-64
2022/12/07 01:38:52;;;;;;;11.18;8.88;;;5.70;99.90;;;;;;5029219;28;20290;-64
2022/12/07 01:41:19;;;;;;;10.50;8.65;;;5.80;99.90;;;;;;5030666;28;20192;-64
2022/12/07 01:44:19;;;;;;;11.77;8.77;;;5.80;99.90;;;;;;5024482;28;20264;-64
2022/12/07 01:46:57;;;;;;;9.20;7.72;;;5.70;99.90;;;;;;5017229;28;20223;-64
2022/12/07 01:49:37;;;;;;;12.07;9.13;;;5.80;99.90;;;;;;5038341;28;20220;-64
2022/12/07 01:52:22;;;;;;;9.20;8.18;;;5.90;99.90;;;;;;5027528;28;20182;-64
2022/12/07 01:54:52;;;;;;;10.38;8.20;;;5.60;99.90;;;;;;5035776;28;20636;-65
2022/12/07 01:57:19;;;;;;;9.75;8.38;;;5.60;99.90;;;;;;5031139;28;20182;-65
2022/12/07 01:59:47;;;;;;;9.00;8.05;;;5.80;99.90;;;;;;5046233;28;20271;-65
2022/12/07 02:02:27;;;;;;;9.40;7.93;;;6.00;99.90;;;;;;5038878;28;20193;-64
2022/12/07 02:04:53;;;;;;;12.48;9.20;;;5.80;99.90;;;;;;5027516;28;20239;-64
2022/12/07 02:07:21;;;;;;;12.85;9.02;;;5.60;99.90;;;;;;5030451;28;20562;-65
2022/12/07 02:09:47;;;;;;;10.25;8.32;;;5.40;99.90;;;;;;5039879;28;20213;-64
2022/12/07 02:12:13;;;;;;;10.70;7.83;;;5.40;99.90;;;;;;5034922;28;20309;-65
2022/12/07 02:14:38;;;;;;;11.77;8.70;;;5.50;99.90;;;;;;5033416;28;20255;-64
2022/12/07 02:17:17;;;;;;;9.23;8.07;;;5.40;99.90;;;;;;5032176;28;20208;-64
2022/12/07 02:20:00;;;;;;;9.88;8.50;;;5.30;99.90;;;;;;5038547;28;20538;-64
2022/12/07 02:22:50;;;;;;;10.43;8.43;;;5.40;99.90;;;;;;5031363;28;20544;-66
2022/12/07 02:25:33;;;;;;;12.60;7.70;;;5.50;99.90;;;;;;5034214;28;20286;-64
2022/12/07 02:28:29;;;;;;;9.43;7.97;;;5.50;99.90;;;;;;5033696;28;20708;-64
2022/12/07 02:30:58;;;;;;;11.25;8.75;;;5.40;99.90;;;;;;5039437;28;20574;-64
2022/12/07 02:33:36;;;;;;;8.63;7.03;;;5.50;99.90;;;;;;5030346;28;20194;-66
2022/12/07 02:36:11;;;;;;;12.18;8.95;;;5.60;99.90;;;;;;5030334;28;20194;-64
2022/12/07 02:39:01;;;;;;;10.52;8.10;;;5.50;99.90;;;;;;5029803;28;20193;-65
2022/12/07 02:41:39;;;;;;;9.20;7.18;;;5.60;99.90;;;;;;5029477;28;20534;-64
2022/12/07 02:44:10;;;;;;;10.88;8.50;;;5.50;99.90;;;;;;5030985;28;20693;-65
2022/12/07 02:46:42;;;;;;;8.95;7.38;;;5.50;99.90;;;;;;5030018;28;20218;-68
2022/12/07 02:49:09;;;;;;;9.50;7.63;;;5.50;99.90;;;;;;5030830;28;20220;-66
2022/12/07 02:51:40;;;;;;;9.60;7.38;;;5.30;99.90;;;;;;5030270;28;20182;-65
2022/12/07 02:54:24;;;;;;;9.90;7.50;;;5.20;99.90;;;;;;5030440;28;20352;-66
2022/12/07 02:56:55;;;;;;;10.05;7.88;;;5.70;99.90;;;;;;5030472;28;20189;-67
2022/12/07 02:59:48;;;;;;;9.50;6.80;;;5.40;99.90;;;;;;5028996;28;20205;-67
2022/12/07 03:02:37;;;;;;;9.48;7.43;;;5.50;99.90;;;;;;5022811;28;20187;-67
2022/12/07 03:05:17;;;;;;;7.75;7.00;;;5.60;99.90;;;;;;5022516;28;20219;-68
2022/12/07 03:07:57;;;;;;;9.02;6.75;;;5.60;99.90;;;;;;5041246;28;20196;-68
2022/12/07 03:10:36;;;;;;;9.00;7.25;;;5.60;99.90;;;;;;5037166;28;20316;-65
2022/12/07 03:13:32;;;;;;;7.82;6.50;;;5.70;99.90;;;;;;5033086;28;20242;-65
2022/12/07 03:16:16;;;;;;;7.35;6.50;;;5.70;99.90;;;;;;5041537;28;20217;-68
2022/12/07 03:18:48;;;;;;;8.77;7.25;;;5.60;99.90;;;;;;5038241;28;20232;-67
2022/12/07 03:21:22;;;;;;;9.35;7.00;;;5.50;99.90;;;;;;5030041;28;20182;-65
2022/12/07 03:23:53;;;;;;;8.80;7.50;;;5.50;99.90;;;;;;5040546;28;20285;-68
2022/12/07 03:26:21;;;;;;;7.90;6.97;;;5.30;99.90;;;;;;5033341;28;20196;-65
2022/12/07 03:28:52;;;;;;;10.40;7.22;;;5.20;99.90;;;;;;5029484;28;20191;-68
2022/12/07 03:31:24;;;;;;;8.80;6.60;;;5.20;99.90;;;;;;5027389;28;20789;-65
2022/12/07 03:34:10;;;;;;;8.43;6.85;;;5.30;99.90;;;;;;5026016;28;20188;-67
2022/12/07 03:36:53;;;;;;;9.25;6.90;;;5.40;99.90;;;;;;5026239;28;20266;-67
2022/12/07 03:39:28;;;;;;;8.65;6.97;;;5.20;99.90;;;;;;5023756;28;20184;-64
2022/12/07 03:41:56;;;;;;;9.18;7.45;;;5.50;99.90;;;;;;5028149;28;20187;-66
2022/12/07 03:44:23;;;;;;;10.13;7.20;;;5.30;99.90;;;;;;5029702;28;20232;-64
2022/12/07 03:47:03;;;;;;;7.93;6.82;;;5.10;99.90;;;;;;5029427;28;20590;-64
2022/12/07 03:49:45;;;;;;;10.02;8.23;;;5.10;99.90;;;;;;5028842;28;20216;-64
2022/12/07 03:52:16;;;;;;;9.35;7.80;;;5.40;99.90;;;;;;5018991;28;20261;-66
2022/12/07 03:54:48;;;;;;;11.05;6.90;;;5.40;99.90;;;;;;5029514;28;20238;-64
2022/12/07 03:57:14;;;;;;;8.88;7.20;;;5.60;99.90;;;;;;5024521;28;20186;-64
2022/12/07 03:59:41;;;;;;;7.82;6.65;;;5.40;99.90;;;;;;5026379;28;20220;-64
2022/12/07 04:02:08;;;;;;;8.20;6.88;;;5.30;99.90;;;;;;5028946;28;20190;-65
2022/12/07 04:04:34;;;;;;;9.90;8.13;;;5.50;99.90;;;;;;5031638;28;20301;-66
2022/12/07 04:07:00;;;;;;;8.48;7.00;;;5.40;99.90;;;;;;5027889;28;20271;-63
2022/12/07 04:09:27;;;;;;;8.43;7.10;;;5.30;99.90;;;;;;5029855;28;20213;-67
2022/12/07 04:11:52;;;;;;;8.75;7.03;;;5.20;99.90;;;;;;5029499;28;20336;-65
2022/12/07 04:14:18;;;;;;;9.80;7.80;;;5.60;99.90;;;;;;5029972;28;20280;-67
2022/12/07 04:16:53;;;;;;;9.17;7.50;;;5.40;99.90;;;;;;5028588;28;20193;-67
2022/12/07 04:19:20;;;;;;;9.05;7.93;;;5.50;99.90;;;;;;5023293;28;20195;-65
2022/12/07 04:21:47;;;;;;;8.93;7.45;;;5.40;99.90;;;;;;5025401;28;20287;-68
2022/12/07 04:24:14;;;;;;;11.10;7.95;;;5.30;99.90;;;;;;5030572;28;20630;-68
2022/12/07 04:26:40;;;;;;;9.57;7.85;;;5.30;99.90;;;;;;5022657;28;20185;-65
2022/12/07 04:29:06;;;;;;;12.70;9.93;;;5.60;99.90;;;;;;5034568;28;20181;-67
2022/12/07 04:31:32;;;;;;;9.50;7.73;;;5.30;99.90;;;;;;5043901;28;20217;-66
2022/12/07 04:33:57;;;;;;;9.13;7.03;;;5.50;99.90;;;;;;5023841;28;20837;-65
2022/12/07 04:36:23;;;;;;;7.27;6.40;;;5.50;99.90;;;;;;5027183;28;20178;-65
2022/12/07 04:38:48;;;;;;;9.70;6.93;;;5.40;99.90;;;;;;5030318;28;20572;-65
2022/12/07 04:41:14;;;;;;;9.33;7.30;;;5.30;99.90;;;;;;5050985;28;20185;-67
2022/12/07 04:43:40;;;;;;;9.83;7.13;;;5.30;99.90;;;;;;5033548;28;20185;-67
2022/12/07 04:46:06;;;;;;;7.40;6.23;;;5.10;99.90;;;;;;5028447;28;20420;-67
2022/12/07 04:48:31;;;;;;;7.40;5.90;;;5.40;99.90;;;;;;5031822;28;20209;-67
2022/12/07 04:50:57;;;;;;;6.27;5.67;;;5.30;99.90;;;;;;5028821;28;20534;-67
2022/12/07 04:53:23;;;;;;;6.77;5.80;;;5.30;99.90;;;;;;5047230;28;20194;-66
2022/12/07 04:55:48;;;;;;;5.33;4.80;;;5.40;99.90;;;;;;5039222;28;20264;-67
2022/12/07 04:58:14;;;;;;;4.73;4.10;;;5.70;99.90;;;;;;5034513;28;20178;-65
2022/12/07 05:00:40;;;;;;;5.17;4.53;;;5.60;99.90;;;;;;5024749;28;20272;-68
2022/12/07 05:03:06;;;;;;;4.90;4.37;;;5.40;99.90;;;;;;5032982;28;20442;-66
2022/12/07 05:05:31;;;;;;;4.97;4.37;;;5.40;99.90;;;;;;5025421;28;20833;-66
2022/12/07 05:07:57;;;;;;;4.53;4.13;;;5.60;99.90;;;;;;5027800;28;20410;-65
2022/12/07 05:10:23;;;;;;;6.97;4.77;;;5.50;99.90;;;;;;5055468;28;20205;-66
2022/12/07 05:12:49;;;;;;;5.07;3.77;;;5.30;99.90;;;;;;5031977;28;20924;-66
2022/12/07 05:15:15;;;;;;;5.13;4.63;;;5.50;99.90;;;;;;5029765;28;20881;-66
2022/12/07 05:17:41;;;;;;;6.20;4.25;;;5.40;99.90;;;;;;5041888;28;20186;-66
2022/12/07 05:20:08;;;;;;;4.20;3.80;;;5.30;99.90;;;;;;5032355;28;20285;-65
2022/12/07 05:22:34;;;;;;;5.93;4.43;;;5.30;99.90;;;;;;5021060;28;20465;-66
2022/12/07 05:25:00;;;;;;;5.10;4.20;;;5.60;99.90;;;;;;5026383;28;20233;-65
2022/12/07 05:27:26;;;;;;;5.10;4.70;;;5.40;99.90;;;;;;5029340;28;20547;-65
2022/12/07 05:29:51;;;;;;;6.00;4.73;;;5.60;99.90;;;;;;5035277;28;20272;-67
2022/12/07 05:32:18;;;;;;;5.87;4.90;;;5.50;99.90;;;;;;5030395;28;20828;-67
2022/12/07 05:34:43;;;;;;;6.25;5.43;;;5.50;99.90;;;;;;5034228;28;20205;-66
2022/12/07 05:37:09;;;;;;;6.13;5.03;;;5.50;99.90;;;;;;5030544;28;20208;-65
2022/12/07 05:39:35;;;;;;;6.53;5.23;;;5.40;99.90;;;;;;5029154;28;20189;-66
2022/12/07 05:42:12;;;;;;;7.40;5.87;;;5.60;99.90;;;;;;5025234;28;20236;-67
2022/12/07 05:44:39;;;;;;;5.82;5.07;;;5.40;99.90;;;;;;5027576;28;20198;-65
2022/12/07 05:47:05;;;;;;;7.10;5.30;;;5.20;99.90;;;;;;5046515;28;20193;-65
2022/12/07 05:49:31;;;;;;;6.80;5.50;;;3.90;99.90;;;;;;5033292;28;20224;-65
2022/12/07 05:51:57;;;;;;;5.80;4.97;;;5.00;99.90;;;;;;5028171;28;20983;-62
2022/12/07 05:54:22;;;;;;;6.43;5.40;;;5.00;99.90;;;;;;5032999;28;20202;-65
2022/12/07 05:56:48;;;;;;;6.17;5.57;;;5.00;99.90;;;;;;5032551;28;20193;-64
2022/12/07 05:59:23;;;;;;;7.30;4.90;;;4.80;99.90;;;;;;5036458;28;20200;-64
2022/12/07 06:02:00;;;;;;;6.18;5.55;;;4.90;99.90;;;;;;5031216;28;20203;-63
2022/12/07 06:04:28;;;;;;;6.03;5.43;;;5.30;99.90;;;;;;5045015;28;20205;-67
2022/12/07 06:06:54;;;;;;;7.50;5.93;;;5.30;99.90;;;;;;5038006;28;20647;-65
2022/12/07 06:09:23;;;;;;;7.15;5.55;;;5.10;99.90;;;;;;5029581;28;20182;-63
2022/12/07 06:14:32;;;;;;;10.23;6.75;;;5.00;99.90;;;;;;5028484;28;20256;-69
2022/12/07 06:16:58;;;;;;;5.73;4.90;;;4.90;99.90;;;;;;5022559;28;20178;-68
2022/12/07 06:19:24;;;;;;;6.88;5.72;;;5.20;99.90;;;;;;5031397;28;20251;-67
2022/12/07 06:21:50;;;;;;;5.43;4.70;;;4.80;99.90;;;;;;5029440;28;20197;-64
2022/12/07 06:24:17;;;;;;;6.75;5.50;;;5.00;99.90;;;;;;5029277;28;20221;-65
2022/12/07 06:26:43;;;;;;;9.15;5.28;;;5.30;99.90;;;;;;5027518;28;20244;-65
2022/12/07 06:29:09;;;;;;;6.33;5.73;;;5.50;99.90;;;;;;5031061;28;20665;-65
2022/12/07 06:31:35;;;;;;;8.07;5.78;;;5.30;99.90;;;;;;5045622;28;20199;-63
2022/12/07 06:34:04;;;;;;;11.88;6.05;;;5.00;99.90;;;;;;5044771;28;20259;-66
2022/12/07 06:36:31;;;;;;;9.27;7.75;;;4.60;99.90;;;;;;5025162;28;20181;-63
2022/12/07 06:38:56;;;;;;;6.22;5.53;;;4.90;99.90;;;;;;5033173;28;20244;-65
2022/12/07 06:41:23;;;;;;;6.43;5.07;;;5.00;99.90;;;;;;5042969;28;20197;-65
2022/12/07 06:43:49;;;;;;;8.48;5.57;;;4.90;99.90;;;;;;5028457;28;20439;-64
2022/12/07 06:46:15;;;;;;;6.97;5.30;;;4.70;99.90;;;;;;5029000;28;20194;-64
2022/12/07 06:48:41;;;;;;;6.30;5.25;;;4.80;99.90;;;;;;5028136;28;20192;-64
2022/12/07 06:51:08;;;;;;;5.75;5.05;;;4.40;99.90;;;;;;5037974;28;20217;-64
2022/12/07 06:53:34;;;;;;;7.93;5.15;;;5.20;99.90;;;;;;5028089;28;20189;-65
2022/12/07 06:55:59;;;;;;;6.97;6.27;;;5.10;99.90;;;;;;5030082;28;20213;-65
2022/12/07 06:58:25;;;;;;;6.80;5.30;;;5.10;99.90;;;;;;5034333;28;20227;-65
2022/12/07 07:00:51;;;;;;;8.30;6.23;;;5.20;99.90;;;;;;5028531;28;20673;-65
2022/12/07 07:03:16;;;;;;;10.40;7.00;;;5.20;99.90;;;;;;5034413;28;20327;-65
2022/12/07 07:05:43;;;;;;;7.30;6.40;;;5.10;99.90;;;;;;5031133;28;20210;-67
2022/12/07 07:08:09;;;;;;;7.40;5.40;;;5.00;99.90;;;;;;5026180;28;20979;-62
2022/12/07 07:10:35;;;;;;;7.72;6.40;;;5.60;99.90;;;;;;5028762;28;20343;-63
2022/12/07 07:13:02;;;;;;;5.72;4.93;;;4.90;99.90;;;;;;5021995;28;20685;-63
2022/12/07 07:15:28;;;;;;;6.38;5.22;;;5.00;99.90;;;;;;5028592;28;20227;-63
2022/12/07 07:17:53;;;;;;;6.60;6.00;;;5.10;99.90;;;;;;5024387;28;20646;-63
2022/12/07 07:20:19;;;;;;;7.90;4.87;;;5.00;99.90;;;;;;5028271;28;20228;-66
2022/12/07 07:22:45;;;;;;;7.03;5.63;;;5.00;99.90;;;;;;5029623;28;20209;-66
2022/12/07 07:25:11;;;;;;;7.75;6.10;;;5.00;99.90;;;;;;5029504;28;20214;-65
2022/12/07 07:27:37;;;;;;;5.73;4.70;;;5.20;99.90;;;;;;5029400;28;20189;-63
2022/12/07 07:30:04;;;;;;;6.40;5.47;;;4.90;99.90;;;;;;5029069;28;20467;-64
2022/12/07 07:32:29;;;;;;;10.70;4.93;;;5.20;99.90;;;;;;5027202;28;20229;-65
2022/12/07 07:34:55;;;;;;;7.67;5.53;;;4.90;99.90;;;;;;5027430;28;20291;-64
2022/12/07 07:37:20;;;;;;;5.93;4.43;;;4.80;99.90;;;;;;5028262;28;20194;-63
2022/12/07 07:39:46;;;;;;;6.30;5.00;;;5.00;99.90;;;;;;5026625;28;20614;-65
2022/12/07 07:42:12;;;;;;;7.27;5.03;;;5.20;99.90;;;;;;5027628;28;20199;-66
2022/12/07 07:44:37;;;;;;;15.37;5.50;;;5.40;99.90;;;;;;5028023;28;20381;-67
2022/12/07 07:47:03;;;;;;;10.63;5.20;;;5.30;99.90;;;;;;5027218;28;20202;-66
2022/12/07 07:49:29;;;;;;;6.77;5.37;;;5.10;99.90;;;;;;5039750;28;20263;-66
2022/12/07 07:51:55;;;;;;;7.20;5.57;;;5.20;99.90;;;;;;5024322;28;20944;-66
2022/12/07 07:54:20;;;;;;;8.97;6.03;;;5.40;99.90;;;;;;5019839;28;20460;-66
2022/12/07 07:56:46;;;;;;;8.83;6.33;;;5.50;99.90;;;;;;5025067;28;20256;-67
2022/12/07 07:59:12;;;;;;;6.57;5.33;;;5.20;99.90;;;;;;5027253;28;20214;-72
2022/12/07 08:01:37;;;;;;;8.33;6.07;;;5.20;99.90;;;;;;5028999;28;20186;-67
2022/12/07 08:04:03;;;;;;;11.20;6.00;;;5.40;99.90;;;;;;5026453;28;20202;-67
2022/12/07 08:06:29;;;;;;;8.30;5.17;;;5.30;99.90;;;;;;5036804;28;20188;-68
2022/12/07 08:08:54;;;;;;;9.00;5.37;;;5.40;99.90;;;;;;5029074;28;20553;-65
2022/12/07 08:11:20;;;;;;;9.00;6.47;;;5.50;99.90;;;;;;5027473;28;20210;-66
2022/12/07 08:13:46;;;;;;;7.53;6.10;;;5.70;99.90;;;;;;5030494;28;20238;-67
2022/12/07 08:16:14;;;;;;;9.48;5.97;;;5.60;99.90;;;;;;5032768;28;20184;-66
2022/12/07 08:18:40;;;;;;;6.43;5.30;;;5.50;99.90;;;;;;5034646;28;20196;-67
2022/12/07 08:21:09;;;;;;;6.30;5.55;;;5.70;99.90;;;;;;5030855;28;20194;-67
2022/12/07 08:23:35;;;;;;;9.23;5.60;;;5.40;99.90;;;;;;5031623;28;20268;-67
2022/12/07 08:26:05;;;;;;;10.73;5.80;;;5.60;99.90;;;;;;5036144;28;20186;-69
2022/12/07 08:28:32;;;;;;;5.85;5.05;;;5.70;99.90;;;;;;5030764;28;20188;-68
2022/12/07 08:31:06;;;;;;;9.45;6.15;;;5.70;99.90;;;;;;5030330;28;20213;-66
2022/12/07 08:33:33;;;;;;;10.60;5.60;;;5.90;99.90;;;;;;5042179;28;20243;-66
2022/12/07 08:36:04;;;;;;;5.60;4.63;;;5.90;99.90;;;;;;5031281;28;20742;-67
2022/12/07 08:38:29;;;;;;;5.68;5.07;;;5.60;99.90;;;;;;5024867;28;20812;-71
2022/12/07 08:40:56;;;;;;;6.63;5.17;;;5.80;99.90;;;;;;5037921;28;20186;-66
2022/12/07 08:43:22;;;;;;;7.10;4.68;;;6.10;99.90;;;;;;5031651;28;20194;-64
2022/12/07 08:45:53;;;;;;;6.28;4.90;;;6.50;99.90;;;;;;5029846;28;20615;-63
2022/12/07 08:48:21;;;;;;;6.53;4.78;;;6.40;99.90;;;;;;5029601;28;20197;-67
2022/12/07 08:50:48;;;;;;;4.45;4.05;;;6.20;99.90;;;;;;5030644;28;20224;-66
2022/12/07 08:53:14;;;;;;;6.45;5.35;;;6.50;99.90;;;;;;5024904;28;20230;-66
2022/12/07 08:55:39;;;;;;;5.73;4.40;;;6.30;99.90;;;;;;5033946;28;20206;-66
2022/12/07 08:58:05;;;;;;;7.13;5.27;;;6.50;99.90;;;;;;5030507;28;20190;-68
2022/12/07 09:00:31;;;;;;;6.10;5.43;;;6.50;99.90;;;;;;5029747;28;20217;-66
2022/12/07 09:02:56;;;;;;;5.30;4.47;;;6.50;99.90;;;;;;5029533;28;20190;-67
2022/12/07 09:05:22;;;;;;;5.10;4.60;;;6.70;99.90;;;;;;5033414;28;20210;-66
2022/12/07 09:07:51;;;;;;;7.10;4.55;;;6.90;99.90;;;;;;5030037;28;20205;-66
2022/12/07 09:10:17;;;;;;;5.88;4.55;;;6.70;99.90;;;;;;5040167;28;20205;-66
2022/12/07 09:12:43;;;;;;;4.85;4.38;;;6.80;99.90;;;;;;5035638;28;20190;-68
2022/12/07 09:15:08;;;;;;;6.40;5.13;;;6.90;99.60;;;;;;5029308;28;20268;-67
2022/12/07 09:17:35;;;;;;;6.27;4.80;;;6.90;99.80;;;;;;5029872;28;20216;-66
2022/12/07 09:20:02;;;;;;;4.20;3.78;;;6.90;99.90;;;;;;5028476;28;20990;-68
2022/12/07 09:22:31;;;;;;;5.28;4.30;;;7.00;99.70;;;;;;5026302;28;20190;-66
2022/12/07 09:24:58;;;;;;;5.00;3.83;;;7.10;99.40;;;;;;5022718;28;20245;-66
2022/12/07 09:27:24;;;;;;;6.05;4.20;;;6.90;99.10;;;;;;5032664;28;20600;-68
2022/12/07 09:29:50;;;;;;;11.35;6.20;;;6.90;99.00;;;;;;5028109;28;20194;-65
2022/12/07 09:32:15;;;;;;;14.17;4.83;;;6.80;98.70;;;;;;5029365;28;20187;-67
2022/12/07 09:34:41;;;;;;;7.77;4.93;;;7.10;99.00;;;;;;5025663;28;20617;-66
2022/12/07 09:37:07;;;;;;;6.83;4.03;;;7.00;98.60;;;;;;5024936;28;20195;-67
2022/12/07 09:39:32;;;;;;;5.70;3.90;;;7.20;98.50;;;;;;5031279;28;20182;-64
2022/12/07 09:42:02;;;;;;;8.43;3.80;;;7.20;98.60;;;;;;5027858;28;20273;-64
2022/12/07 09:44:28;;;;;;;4.50;3.97;;;7.10;98.50;;;;;;5038052;28;20319;-64
2022/12/07 09:46:56;;;;;;;8.05;3.65;;;7.10;98.20;;;;;;5024425;28;20194;-65
2022/12/07 09:49:25;;;;;;;5.35;4.13;;;7.30;98.20;;;;;;5029698;28;20186;-65
2022/12/07 09:52:27;;;;;;;5.78;3.80;;;7.00;98.10;;;;;;5027488;28;20179;-63
2022/12/07 09:54:52;;;;;;;4.70;3.85;;;7.30;98.00;;;;;;5024094;28;20255;-67
2022/12/07 09:57:29;;;;;;;4.03;3.63;;;7.60;98.60;;;;;;5030072;28;20194;-65
2022/12/07 10:00:00;;;;;;;4.32;3.20;;;7.60;97.90;;;;;;5028150;28;20432;-66
2022/12/07 10:02:42;;;;;;;3.95;3.55;;;7.30;97.80;;;;;;5027124;28;20183;-64
2022/12/07 10:05:25;;;;;;;6.95;4.35;;;7.50;98.20;;;;;;5029069;28;20578;-64
2022/12/07 10:07:51;;;;;;;4.85;3.50;;;7.40;98.00;;;;;;5026093;28;20606;-63
2022/12/07 10:10:31;;;;;;;4.90;3.90;;;7.40;98.10;;;;;;5027569;28;20214;-66
2022/12/07 10:13:03;;;;;;;4.07;3.67;;;7.60;98.00;;;;;;5034212;28;20558;-66
2022/12/07 10:15:44;;;;;;;4.70;3.50;;;7.40;97.40;;;;;;5027088;28;20561;-66
2022/12/07 10:18:27;;;;;;;3.50;3.20;;;7.60;97.60;;;;;;5030291;28;20189;-66
2022/12/07 10:21:08;;;;;;;3.80;3.35;;;7.50;97.80;;;;;;5026451;28;20643;-65
2022/12/07 10:23:35;;;;;;;6.18;4.30;;;7.90;97.80;;;;;;5026629;28;20195;-65
2022/12/07 10:26:38;;;;;;;4.68;3.80;;;7.60;97.80;;;;;;5025116;28;20270;-64
2022/12/07 10:29:21;;;;;;;3.05;2.72;;;7.60;98.10;;;;;;5028854;28;20190;-65
2022/12/07 10:32:00;;;;;;;4.32;3.17;;;8.10;98.00;;;;;;5025391;28;20285;-65
2022/12/07 10:34:32;;;;;;;4.47;2.85;;;7.80;97.90;;;;;;5027524;28;20205;-65
2022/12/07 10:37:17;;;;;;;5.30;3.00;;;7.70;98.30;;;;;;5025762;28;20491;-66
2022/12/07 10:39:55;;;;;;;3.63;3.08;;;7.50;98.40;;;;;;5028573;28;20643;-62
2022/12/07 10:42:31;;;;;;;4.20;3.65;;;7.50;98.50;;;;;;5023834;28;20273;-62
2022/12/07 10:45:12;;;;;;;4.43;3.10;;;7.90;98.60;;;;;;5026839;28;20296;-62
2022/12/07 10:47:48;;;;;;;3.75;3.22;;;8.00;98.70;;;;;;5023131;28;20197;-61
2022/12/07 10:50:17;;;;;;;3.35;3.05;;;7.50;97.90;;;;;;5031800;28;20214;-59
2022/12/07 10:53:07;;;;;;;4.43;3.28;;;7.70;98.10;;;;;;5023008;28;20220;-61
2022/12/07 10:55:59;;;;;;;3.70;3.40;;;7.50;98.40;;;;;;5028336;28;20211;-61
2022/12/07 10:58:58;;;;;;;3.13;2.83;;;7.50;98.80;;;;;;5028166;28;20469;-61
2022/12/07 11:01:39;;;;;;;3.85;3.00;;;7.60;99.50;;;;;;5023067;28;20194;-60
2022/12/07 11:04:20;;;;;;;4.97;3.88;;;7.40;98.90;;;;;;5028227;28;20684;-61
2022/12/07 11:07:15;;;;;;;4.57;4.18;;;7.60;99.20;;;;;;5038522;28;20186;-63
2022/12/07 11:09:53;;;;;;;4.15;3.25;;;7.50;98.80;;;;;;5030017;28;20213;-62
2022/12/07 11:13:03;;;;;;;6.55;5.40;;;7.80;98.70;;;;;;5028042;28;20537;-62
2022/12/07 11:15:37;;;;;;;3.67;3.15;;;7.80;98.80;;;;;;5025418;28;20349;-65
2022/12/07 11:18:33;;;;;;;3.30;2.60;;;7.80;99.00;;;;;;5025349;28;20182;-62
2022/12/07 11:21:14;;;;;;;3.35;3.05;;;7.60;98.80;;;;;;5024970;28;20573;-63
2022/12/07 11:24:18;;;;;;;4.90;2.97;;;7.40;98.90;;;;;;5019486;28;20625;-62
2022/12/07 11:26:53;;;;;;;3.50;3.20;;;7.60;99.40;;;;;;5022811;28;20202;-65
2022/12/07 11:29:42;;;;;;;5.05;4.45;;;7.80;99.70;;;;;;5028295;28;20197;-66
2022/12/07 11:32:35;;;;;;;3.90;3.47;;;7.80;99.60;;;;;;5044633;28;20308;-63
2022/12/07 11:35:40;;;;;;;3.38;3.08;;;7.60;99.40;;;;;;5035763;28;20217;-64
2022/12/07 11:38:26;;;;;;;2.45;2.22;;;7.70;99.50;;;;;;5024559;28;20197;-70
2022/12/07 11:41:12;;;;;;;2.30;2.10;;;7.60;99.50;;;;;;5023032;28;20186;-65
2022/12/07 11:44:01;;;;;;;3.92;2.90;;;7.70;99.50;;;;;;5021940;28;20189;-64
2022/12/07 11:46:50;;;;;;;4.07;1.88;;;7.80;99.90;;;;;;5020736;28;20533;-65
2022/12/07 11:49:53;;;;;;;2.00;1.90;;;7.70;99.60;;;;;;5026989;28;20210;-62
2022/12/07 11:52:45;;;;;;;2.97;2.67;;;7.50;99.40;;;;;;5018430;28;20260;-62
2022/12/07 11:55:32;;;;;;;2.28;2.00;;;7.30;99.60;;;;;;5022792;28;20221;-62
2022/12/07 11:58:11;;;;;;;2.58;2.38;;;7.50;99.90;;;;;;5020549;28;20178;-64
2022/12/07 12:00:38;;;;;;;3.28;2.60;;;7.40;99.90;;;;;;5025311;28;20182;-65
2022/12/07 12:03:12;;;;;;;3.78;2.13;;;7.50;99.90;;;;;;5031110;28;20531;-65
2022/12/07 12:05:39;;;;;;;3.63;2.42;;;7.70;99.90;;;;;;5015659;28;20205;-63
2022/12/07 12:08:29;;;;;;;2.80;2.55;;;7.80;99.90;;;;;;5020195;28;20643;-63
2022/12/07 12:11:33;;;;;;;5.32;3.38;;;7.80;99.90;;;;;;5027362;28;20297;-63
2022/12/07 12:14:17;;;;;;;3.05;2.40;;;7.80;99.90;;;;;;5009128;28;20239;-62
2022/12/07 12:17:07;;;;;;;4.65;3.30;;;7.60;99.90;;;;;;5043295;28;20741;-62
2022/12/07 12:19:40;;;;;;;4.47;3.60;;;7.40;99.90;;;;;;5034054;28;20226;-64
2022/12/07 12:22:36;;;;;;;4.10;3.20;;;7.50;99.90;;;;;;5045131;28;20186;-62
2022/12/07 12:25:06;;;;;;;3.88;3.38;;;7.60;99.90;;;;;;5028988;28;20241;-62
2022/12/07 12:27:35;;;;;;;5.22;4.10;;;7.70;99.90;;;;;;5040908;28;20174;-63
2022/12/07 12:30:23;;;;;;;4.63;4.18;;;7.70;99.90;;;;;;5035817;28;20402;-63
2022/12/07 12:32:48;;;;;;;5.70;5.00;;;7.90;99.90;;;;;;5028472;28;20245;-63
2022/12/07 12:35:36;;;;;;;5.60;4.80;;;7.80;99.90;;;;;;5027133;28;20214;-63
2022/12/07 12:38:31;;;;;;;6.10;5.15;;;7.70;99.90;;;;;;5027316;28;20437;-63
2022/12/07 12:40:57;;;;;;;5.80;5.03;;;7.50;99.90;;;;;;5028675;28;20193;-63
2022/12/07 12:43:43;;;;;;;6.82;4.60;;;7.50;99.90;;;;;;5028135;28;20249;-63
2022/12/07 12:46:33;;;;;;;8.15;5.85;;;7.40;99.90;;;;;;5025786;28;20194;-63
2022/12/07 12:49:21;;;;;;;4.80;4.20;;;7.50;99.90;;;;;;5027276;28;20227;-63
2022/12/07 12:51:50;;;;;;;5.03;4.22;;;7.40;99.90;;;;;;5037504;28;20231;-64
2022/12/07 12:54:18;;;;;;;7.45;5.32;;;7.50;99.90;;;;;;5028144;28;20293;-63
2022/12/07 12:57:05;;;;;;;5.50;4.07;;;7.40;99.90;;;;;;5026777;28;20226;-64
2022/12/07 12:59:40;;;;;;;4.68;4.28;;;7.30;99.90;;;;;;5028322;28;20555;-64
2022/12/07 13:02:09;;;;;;;5.90;4.40;;;7.20;99.90;;;;;;5027876;28;20560;-64
2022/12/07 13:04:51;;;;;;;4.65;4.25;;;7.30;99.90;;;;;;5032208;28;20198;-63
2022/12/07 13:07:51;;;;;;;6.70;4.10;;;7.50;99.90;;;;;;5032116;28;20193;-64
2022/12/07 13:10:32;;;;;;;4.30;3.90;;;7.40;99.90;;;;;;5027390;28;20316;-64
2022/12/07 13:13:00;;;;;;;4.78;4.25;;;7.40;99.90;;;;;;5032147;28;20182;-63
2022/12/07 13:15:55;;;;;;;5.85;4.63;;;7.00;99.90;;;;;;5031456;28;20644;-64
2022/12/07 13:18:36;;;;;;;5.50;4.25;;;7.70;99.90;;;;;;5030548;28;20212;-64
2022/12/07 13:21:06;;;;;;;4.78;4.20;;;7.40;99.90;;;;;;5022321;28;20221;-64
2022/12/07 13:23:41;;;;;;;5.20;4.20;;;7.70;99.90;;;;;;5030462;28;20236;-63
2022/12/07 13:26:34;;;;;;;4.35;3.95;;;7.30;99.90;;;;;;5038855;28;20224;-64